Time;durP1;ratioP1;P1;durP2;ratioP2;P2;SDS_P1;SDS_P2;PMS_P1;PMS_P2;Temp;Humidity;BMP_temperature;BMP_pressure;BME280_temperature;BME280_humidity;BME280_pressure;Samples;Min_cycle;Max_cycle;Signal;HPM_P1;HPM_P2
2022/04/23 00:01:10;;;;;;;;;60.00;49.67;;;;;9.62;100.00;98383.88;6314010;20;3626375;-48
2022/04/23 00:03:40;;;;;;;;;60.33;46.00;;;;;9.53;100.00;98383.72;6310905;20;3641895;-51
2022/04/23 00:06:10;;;;;;;;;57.67;48.00;;;;;9.37;100.00;98395.66;6314777;20;2869211;-49
2022/04/23 00:08:39;;;;;;;;;65.00;48.00;;;;;9.30;100.00;98386.38;6312484;20;3643968;-49
2022/04/23 00:11:09;;;;;;;;;59.67;47.00;;;;;9.44;100.00;98396.88;6315022;20;2855534;-52
2022/04/23 00:13:39;;;;;;;;;60.67;48.00;;;;;9.37;100.00;98400.13;6314091;20;3612764;-50
2022/04/23 00:16:10;;;;;;;;;69.33;53.00;;;;;9.44;100.00;98391.50;6311089;20;3622128;-50
2022/04/23 00:18:42;;;;;;;;;63.33;48.67;;;;;9.35;100.00;98386.88;6313909;20;3631609;-51
2022/04/23 00:21:11;;;;;;;;;65.33;51.00;;;;;9.27;100.00;98383.06;6313996;20;3633580;-48
2022/04/23 00:23:41;;;;;;;;;62.67;48.33;;;;;9.15;100.00;98385.72;6312405;20;3622336;-52
2022/04/23 00:26:10;;;;;;;;;59.67;48.00;;;;;9.34;100.00;98385.16;6312896;20;3617984;-52
2022/04/23 00:28:39;;;;;;;;;55.00;46.00;;;;;9.40;100.00;98387.38;6311697;20;2860668;-50
2022/04/23 00:31:10;;;;;;;;;59.67;48.67;;;;;9.48;100.00;98384.09;6278889;20;2866000;-51
2022/04/23 00:33:39;;;;;;;;;55.67;46.00;;;;;9.36;100.00;98380.53;6314445;20;2861893;-49
2022/04/23 00:36:10;;;;;;;;;58.00;45.33;;;;;9.26;100.00;98376.88;6312777;20;3635738;-48
2022/04/23 00:38:42;;;;;;;;;56.00;45.67;;;;;9.26;100.00;98379.53;6314422;20;2872614;-51
2022/04/23 00:41:45;;;;;;;;;55.00;44.00;;;;;9.18;100.00;98385.47;6310661;20;2854544;-48
2022/04/23 00:44:05;;;;;;;;;58.67;46.33;;;;;9.29;100.00;98376.63;6312748;20;2870200;-53
2022/04/23 00:46:35;;;;;;;;;57.00;46.00;;;;;9.19;100.00;98381.84;6313540;20;3604440;-50
2022/04/23 00:49:06;;;;;;;;;55.67;46.00;;;;;9.34;100.00;98379.78;6311089;20;3626419;-51
2022/04/23 00:51:39;;;;;;;;;57.00;45.33;;;;;9.27;100.00;98383.06;6311844;20;3601388;-50
2022/04/23 00:54:10;;;;;;;;;56.67;45.67;;;;;9.38;100.00;98370.56;6310590;20;2853501;-51
2022/04/23 00:56:40;;;;;;;;;53.50;44.00;;;;;9.25;100.00;98375.16;6313696;20;2850341;-52
2022/04/23 00:59:12;;;;;;;;;55.00;43.00;;;;;9.17;100.00;98372.22;6281330;20;2858579;-51
2022/04/23 01:01:45;;;;;;;;;56.67;43.00;;;;;9.10;100.00;98376.34;6282303;20;3613780;-51
2022/04/23 01:04:16;;;;;;;;;55.67;45.33;;;;;9.14;100.00;98375.16;6312953;20;2871318;-51
2022/04/23 01:06:47;;;;;;;;;56.67;45.00;;;;;9.17;100.00;98377.59;6313431;20;2866061;-48
2022/04/23 01:09:16;;;;;;;;;56.00;46.33;;;;;9.34;100.00;98379.78;6311357;20;3616992;-53
2022/04/23 01:11:47;;;;;;;;;58.00;41.33;;;;;9.41;100.00;98385.56;6310927;20;3620042;-52
2022/04/23 01:14:18;;;;;;;;;57.67;45.00;;;;;9.47;100.00;98377.03;6313268;20;3612841;-52
2022/04/23 01:16:48;;;;;;;;;51.00;43.33;;;;;9.44;100.00;98380.78;6313995;20;3584654;-52
2022/04/23 01:19:17;;;;;;;;;53.50;43.00;;;;;9.61;100.00;98381.28;6280262;20;2853375;-50
2022/04/23 01:21:46;;;;;;;;;52.00;41.00;;;;;9.32;100.00;98383.56;6282172;20;2850332;-49
2022/04/23 01:24:16;;;;;;;;;53.00;43.00;;;;;9.36;100.00;98379.69;6283050;20;2842989;-48
2022/04/23 01:26:45;;;;;;;;;54.00;44.00;;;;;9.12;100.00;98385.97;6278577;20;2856611;-49
2022/04/23 01:29:14;;;;;;;;;54.00;43.33;;;;;9.16;100.00;98379.41;6277530;20;2862782;-51
2022/04/23 01:31:43;;;;;;;;;52.33;41.67;;;;;9.20;100.00;98380.88;6313171;20;2859642;-51
2022/04/23 01:34:12;;;;;;;;;51.00;41.00;;;;;9.25;100.00;98380.53;6315317;20;3594045;-50
2022/04/23 01:36:41;;;;;;;;;45.50;35.00;;;;;9.23;100.00;98379.78;6280546;20;2850301;-49
2022/04/23 01:39:10;;;;;;;;;55.50;45.00;;;;;9.20;100.00;98380.03;6280623;20;2846095;-50
2022/04/23 01:41:39;;;;;;;;;56.00;45.00;;;;;9.20;100.00;98378.19;6282656;20;2847123;-49
2022/04/23 01:44:07;;;;;;;;;53.00;43.50;;;;;9.21;100.00;98379.88;6280562;20;2853406;-51
2022/04/23 01:46:36;;;;;;;;;49.00;40.00;;;;;9.26;100.00;98379.53;6279725;20;2847133;-49
2022/04/23 01:49:05;;;;;;;;;46.50;39.50;;;;;9.20;100.00;98377.34;6278778;20;2843050;-52
2022/04/23 01:51:35;;;;;;;;;49.33;41.67;;;;;9.22;100.00;98375.41;6282441;20;2857662;-48
2022/04/23 01:54:04;;;;;;;;;47.00;40.00;;;;;9.18;100.00;98369.41;6315272;20;3595203;-50
2022/04/23 01:56:32;;;;;;;;;47.50;38.50;;;;;9.32;100.00;98381.78;6280060;20;2860660;-54
2022/04/23 01:59:02;;;;;;;;;47.33;39.67;;;;;9.17;100.00;98383.78;6278940;20;2857798;-47
2022/04/23 02:01:31;;;;;;;;;50.33;41.33;;;;;9.17;100.00;98385.63;6311192;20;2853465;-52
2022/04/23 02:04:02;;;;;;;;;49.00;40.00;;;;;9.20;100.00;98382.69;6309681;20;2863789;-50
2022/04/23 02:06:33;;;;;;;;;47.50;39.00;;;;;9.32;100.00;98383.56;6312093;20;2855483;-52
2022/04/23 02:09:03;;;;;;;;;43.67;38.33;;;;;9.33;100.00;98385.28;6284695;20;2854425;-51
2022/04/23 02:11:32;;;;;;;;;51.50;40.50;;;;;9.18;100.00;98379.28;6317648;20;2857152;-53
2022/04/23 02:14:02;;;;;;;;;54.00;42.50;;;;;9.30;100.00;98381.03;6285412;20;2857668;-52
2022/04/23 02:16:32;;;;;;;;;49.00;40.50;;;;;9.28;100.00;98385.63;6283887;20;2852806;-49
2022/04/23 02:19:03;;;;;;;;;45.00;39.67;;;;;9.17;100.00;98385.63;6282842;20;2848167;-53
2022/04/23 02:21:33;;;;;;;;;53.00;42.00;;;;;9.22;100.00;98391.47;6316655;20;3622116;-49
2022/04/23 02:24:04;;;;;;;;;49.00;42.50;;;;;9.29;100.00;98387.34;6317265;20;2849217;-49
2022/04/23 02:26:33;;;;;;;;;48.67;39.33;;;;;9.38;100.00;98391.16;6285539;20;2851449;-51
2022/04/23 02:29:03;;;;;;;;;53.67;41.00;;;;;9.39;100.00;98393.69;6312544;20;2852408;-49
2022/04/23 02:31:32;;;;;;;;;44.00;38.00;;;;;9.45;100.00;98395.91;6316686;20;2850268;-50
2022/04/23 02:34:02;;;;;;;;;57.33;42.67;;;;;9.40;100.00;98400.78;6284773;20;2870149;-53
2022/04/23 02:36:30;;;;;;;;;48.50;39.00;;;;;9.43;100.00;98400.53;6316938;20;2860697;-52
2022/04/23 02:39:01;;;;;;;;;49.00;39.00;;;;;9.16;100.00;98402.63;6285806;20;2842369;-50
2022/04/23 02:41:31;;;;;;;;;47.00;37.33;;;;;9.24;100.00;98405.59;6284424;20;2873170;-50
2022/04/23 02:44:00;;;;;;;;;46.50;40.00;;;;;9.26;100.00;98409.00;6316832;20;2849254;-52
2022/04/23 02:46:28;;;;;;;;;52.00;41.00;;;;;9.49;100.00;98417.09;6286593;20;2864896;-56
2022/04/23 02:48:59;;;;;;;;;47.33;38.00;;;;;9.23;100.00;98414.59;6281915;20;3611686;-54
2022/04/23 02:51:28;;;;;;;;;49.00;38.00;;;;;9.35;100.00;98416.34;6315494;20;2850264;-55
2022/04/23 02:53:57;;;;;;;;;45.67;39.33;;;;;9.29;100.00;98415.94;6316839;20;3588813;-54
2022/04/23 02:56:26;;;;;;;;;39.50;37.00;;;;;9.19;100.00;98415.81;6285526;20;2845098;-55
2022/04/23 02:58:57;;;;;;;;;48.00;37.00;;;;;9.41;100.00;98417.69;6282950;20;2877574;-58
2022/04/23 03:01:28;;;;;;;;;45.33;37.00;;;;;9.36;100.00;98418.03;6315962;20;3606643;-52
2022/04/23 03:03:58;;;;;;;;;45.50;38.50;;;;;9.38;100.00;98418.78;6282965;20;2841937;-48
2022/04/23 03:06:29;;;;;;;;;41.50;38.00;;;;;9.34;100.00;98417.28;6282923;20;2849227;-50
2022/04/23 03:09:02;;;;;;;;;45.00;38.00;;;;;9.20;100.00;98415.69;6283455;20;2842964;-53
2022/04/23 03:11:33;;;;;;;;;40.00;37.00;;;;;9.26;100.00;98408.16;6284892;20;2852360;-51
2022/04/23 03:14:03;;;;;;;;;38.33;35.33;;;;;9.26;100.00;98418.88;6315515;20;3596046;-52
2022/04/23 03:16:32;;;;;;;;;47.67;39.00;;;;;9.24;100.00;98421.66;6280240;20;2875339;-51
2022/04/23 03:19:01;;;;;;;;;45.50;38.00;;;;;9.20;100.00;98414.84;6314844;20;2852331;-51
2022/04/23 03:21:31;;;;;;;;;46.00;38.00;;;;;9.24;100.00;98416.28;6283036;20;2862966;-49
2022/04/23 03:24:00;;;;;;;;;45.67;37.67;;;;;9.21;100.00;98427.25;6316909;20;2860665;-50
2022/04/23 03:26:29;;;;;;;;;42.33;36.67;;;;;9.39;100.00;98425.00;6319096;20;3601351;-53
2022/04/23 03:28:58;;;;;;;;;48.00;38.33;;;;;9.49;100.00;98427.81;6282640;20;2846104;-52
2022/04/23 03:31:27;;;;;;;;;46.67;39.67;;;;;9.23;100.00;98428.00;6318860;20;3608756;-52
2022/04/23 03:34:00;;;;;;;;;45.67;38.00;;;;;9.36;100.00;98428.75;6284222;20;2850392;-50
2022/04/23 03:36:29;;;;;;;;;45.67;36.00;;;;;9.40;100.00;98427.56;6317197;20;3599305;-51
2022/04/23 03:38:58;;;;;;;;;42.00;38.33;;;;;9.42;100.00;98425.59;6282682;20;2849256;-52
2022/04/23 03:41:27;;;;;;;;;42.00;37.67;;;;;9.35;100.00;98427.06;6316551;20;3585678;-51
2022/04/23 03:43:57;;;;;;;;;49.00;38.33;;;;;9.21;100.00;98422.75;6282752;20;2863843;-52
2022/04/23 03:46:26;;;;;;;;;47.33;37.67;;;;;9.36;100.00;98425.22;6317821;20;3595051;-51
2022/04/23 03:48:56;;;;;;;;;41.33;36.33;;;;;9.35;100.00;98427.06;6314875;20;3591037;-52
2022/04/23 03:51:25;;;;;;;;;41.67;35.33;;;;;9.42;100.00;98422.91;6314762;20;2869057;-51
2022/04/23 03:53:54;;;;;;;;;42.67;35.00;;;;;9.46;100.00;98423.56;6315866;20;3597165;-50
2022/04/23 03:56:25;;;;;;;;;44.00;35.33;;;;;9.42;100.00;98425.59;6282554;20;2859731;-58
2022/04/23 03:58:55;;;;;;;;;40.67;35.67;;;;;9.32;100.00;98419.25;6316133;20;3615867;-58
2022/04/23 04:01:24;;;;;;;;;41.00;36.33;;;;;9.23;100.00;98428.84;6282591;20;2863888;-58
2022/04/23 04:03:53;;;;;;;;;49.33;38.00;;;;;9.39;100.00;98436.56;6314054;20;3617096;-58
2022/04/23 04:06:23;;;;;;;;;43.00;37.00;;;;;9.37;100.00;98433.16;6283294;20;2861776;-59
2022/04/23 04:08:55;;;;;;;;;44.00;37.67;;;;;9.45;100.00;98441.47;6314751;20;3598134;-58
2022/04/23 04:11:23;;;;;;;;;42.00;37.00;;;;;9.54;100.00;98455.13;6316974;20;3620055;-58
2022/04/23 04:13:53;;;;;;;;;45.33;35.33;;;;;9.46;100.00;98453.03;6282795;20;2872358;-58
2022/04/23 04:16:23;;;;;;;;;42.67;36.00;;;;;9.49;100.00;98459.97;6314213;20;3597127;-60
2022/04/23 04:18:52;;;;;;;;;49.00;37.33;;;;;9.57;100.00;98457.56;6279420;20;2856538;-59
2022/04/23 04:21:21;;;;;;;;;41.67;36.33;;;;;9.50;100.00;98461.66;6313357;20;3600712;-59
2022/04/23 04:23:51;;;;;;;;;46.67;36.33;;;;;9.54;100.00;98455.13;6284126;20;3624180;-59
2022/04/23 04:26:19;;;;;;;;;40.00;34.33;;;;;9.34;100.00;98462.00;6313871;20;3587730;-59
2022/04/23 04:28:48;;;;;;;;;28.00;27.00;;;;;9.30;100.00;98458.69;6275775;20;2842049;-58
2022/04/23 04:34:05;;;;;;;;;48.00;37.33;;;;;9.32;100.00;98462.13;6317471;20;3611744;-59
2022/04/23 04:36:34;;;;;;;;;50.33;38.33;;;;;9.41;100.00;98472.13;6281257;20;2864923;-59
2022/04/23 04:39:03;;;;;;;;;44.67;36.67;;;;;9.59;100.00;98466.34;6312940;20;3588772;-58
2022/04/23 04:41:32;;;;;;;;;41.00;36.00;;;;;9.55;100.00;98464.84;6280987;20;2853380;-59
2022/04/23 04:44:01;;;;;;;;;41.00;36.00;;;;;9.64;100.00;98472.19;6282275;20;3603363;-59
2022/04/23 04:46:33;;;;;;;;;38.33;36.33;;;;;9.74;100.00;98475.00;6281561;20;2851373;-59
2022/04/23 04:49:05;;;;;;;;;38.00;34.00;;;;;9.47;100.00;98481.50;6312661;20;2863893;-59
2022/04/23 04:51:36;;;;;;;;;44.00;36.33;;;;;9.52;100.00;98484.69;6281347;20;3584591;-59
2022/04/23 04:54:06;;;;;;;;;45.33;37.33;;;;;9.51;100.00;98483.00;6281757;20;2853380;-59
2022/04/23 04:56:35;;;;;;;;;45.50;40.00;;;;;9.45;100.00;98491.47;6312425;20;2857528;-59
2022/04/23 04:59:05;;;;;;;;;59.67;47.00;;;;;9.73;100.00;98487.53;6281418;20;2864918;-58
2022/04/23 05:01:34;;;;;;;;;48.00;40.67;;;;;9.62;100.00;98490.22;6310980;20;2857646;-59
2022/04/23 05:04:04;;;;;;;;;47.00;41.33;;;;;9.57;100.00;98482.50;6316494;20;3579394;-59
2022/04/23 05:06:33;;;;;;;;;56.33;40.33;;;;;9.51;100.00;98495.53;6312050;20;3638830;-59
2022/04/23 05:09:03;;;;;;;;;52.33;42.67;;;;;9.37;100.00;98492.09;6312820;20;2852388;-58
2022/04/23 05:11:32;;;;;;;;;48.33;39.33;;;;;9.54;100.00;98498.00;6314030;20;3595225;-59
2022/04/23 05:14:02;;;;;;;;;41.00;37.00;;;;;9.50;100.00;98497.34;6282457;20;2870067;-59
2022/04/23 05:16:32;;;;;;;;;47.00;37.67;;;;;9.45;100.00;98494.16;6311954;20;2868025;-59
2022/04/23 05:19:01;;;;;;;;;54.00;43.33;;;;;9.57;100.00;98497.75;6312581;20;3615831;-59
2022/04/23 05:21:30;;;;;;;;;43.33;35.33;;;;;9.48;100.00;98498.44;6314145;20;3581555;-59
2022/04/23 05:23:59;;;;;;;;;42.50;35.50;;;;;9.49;100.00;98501.00;6281253;20;2849278;-59
2022/04/23 05:26:29;;;;;;;;;45.00;37.33;;;;;9.47;100.00;98502.09;6280235;20;2868211;-58
2022/04/23 05:28:57;;;;;;;;;34.33;32.33;;;;;9.38;100.00;98504.50;6315678;20;3604416;-58
2022/04/23 05:31:26;;;;;;;;;45.50;37.50;;;;;9.65;100.00;98503.38;6278155;20;2842156;-58
2022/04/23 05:33:55;;;;;;;;;41.50;35.50;;;;;9.57;100.00;98516.50;6279341;20;2860676;-59
2022/04/23 05:36:24;;;;;;;;;39.33;35.33;;;;;9.56;100.00;98515.66;6283470;20;3596141;-59
2022/04/23 05:38:55;;;;;;;;;40.33;33.67;;;;;9.40;100.00;98515.97;6278692;20;3605454;-59
2022/04/23 05:41:24;;;;;;;;;32.00;30.67;;;;;9.60;100.00;98513.59;6315221;20;3604434;-58
2022/04/23 05:43:53;;;;;;;;;43.50;37.50;;;;;9.44;100.00;98519.25;6279998;20;2864837;-59
2022/04/23 05:46:22;;;;;;;;;57.67;44.00;;;;;9.59;100.00;98519.94;6281052;20;2864954;-59
2022/04/23 05:48:51;;;;;;;;;58.00;48.00;;;;;9.62;100.00;98527.72;6310807;20;2848223;-59
2022/04/23 05:51:20;;;;;;;;;48.67;38.00;;;;;9.71;100.00;98532.38;6280844;20;3619115;-59
2022/04/23 05:53:50;;;;;;;;;48.33;41.00;;;;;9.80;100.00;98530.81;6279669;20;2840013;-59
2022/04/23 05:56:19;;;;;;;;;52.67;40.00;;;;;9.73;100.00;98532.25;6312756;20;2859712;-59
2022/04/23 05:58:48;;;;;;;;;52.33;41.00;;;;;9.84;100.00;98527.78;6312330;20;3623662;-59
2022/04/23 06:01:18;;;;;;;;;37.33;34.00;;;;;9.78;100.00;98533.63;6281598;20;2855536;-58
2022/04/23 06:03:46;;;;;;;;;50.33;41.00;;;;;9.77;100.00;98539.09;6314883;20;3606464;-59
2022/04/23 06:06:16;;;;;;;;;43.33;37.00;;;;;9.73;100.00;98545.66;6279326;20;2869079;-59
2022/04/23 06:08:46;;;;;;;;;43.33;36.00;;;;;9.91;100.00;98543.41;6311443;20;3595034;-59
2022/04/23 06:11:15;;;;;;;;;45.00;35.33;;;;;9.96;100.00;98543.91;6312576;20;3603449;-59
2022/04/23 06:13:44;;;;;;;;;50.33;38.00;;;;;9.81;100.00;98549.47;6280872;20;2866922;-59
2022/04/23 06:16:14;;;;;;;;;55.67;42.67;;;;;9.87;100.00;98553.50;6308442;20;3613815;-59
2022/04/23 06:18:43;;;;;;;;;43.00;35.00;;;;;10.07;100.00;98555.50;6313214;20;3614822;-59
2022/04/23 06:21:13;;;;;;;;;40.00;35.67;;;;;9.79;100.00;98562.13;6278072;20;2846073;-59
2022/04/23 06:23:42;;;;;;;;;47.00;38.00;;;;;10.11;100.00;98556.13;6314223;20;3608545;-59
2022/04/23 06:26:12;;;;;;;;;38.33;34.00;;;;;10.02;100.00;98564.88;6279957;20;3611732;-59
2022/04/23 06:28:40;;;;;;;;;35.00;32.67;;;;;10.07;100.00;98570.72;6312316;20;3589829;-60
2022/04/23 06:31:10;;;;;;;;;41.50;35.50;;;;;10.04;100.00;98571.81;6275610;20;2868017;-59
2022/04/23 06:33:39;;;;;;;;;40.00;35.50;;;;;9.95;100.00;98572.53;6279600;20;2851319;-59
2022/04/23 06:36:13;;;;;;;;;41.33;36.33;;;;;10.00;100.00;98588.25;6278798;20;2857629;-59
2022/04/23 06:38:42;;;;;;;;;43.67;36.67;;;;;10.06;100.00;98585.13;6314454;20;3593967;-58
2022/04/23 06:41:11;;;;;;;;;49.67;37.67;;;;;10.11;100.00;98578.44;6278137;20;3613981;-59
2022/04/23 06:43:40;;;;;;;;;53.33;41.67;;;;;10.23;100.00;98570.41;6312975;20;3599251;-59
2022/04/23 06:46:09;;;;;;;;;36.00;34.33;;;;;10.21;100.00;98573.19;6276449;20;3606592;-59
2022/04/23 06:48:38;;;;;;;;;35.67;34.33;;;;;10.39;100.00;98572.75;6311716;20;3596127;-59
2022/04/23 06:51:08;;;;;;;;;37.33;31.00;;;;;10.43;100.00;98584.97;6279300;20;3616948;-58
2022/04/23 06:53:36;;;;;;;;;42.67;37.00;;;;;10.35;100.00;98595.44;6318286;20;3579391;-59
2022/04/23 06:56:06;;;;;;;;;41.00;34.67;;;;;10.29;100.00;98592.28;6285375;20;2855018;-59
2022/04/23 06:58:35;;;;;;;;;45.00;37.67;;;;;10.48;100.00;98596.19;6319536;20;3617164;-59
2022/04/23 07:01:04;;;;;;;;;45.33;38.00;;;;;10.33;100.00;98593.72;6285555;20;3598649;-59
2022/04/23 07:03:33;;;;;;;;;44.00;36.33;;;;;10.54;100.00;98590.34;6282886;20;3600245;-58
2022/04/23 07:06:03;;;;;;;;;37.33;34.00;;;;;10.48;100.00;98599.75;6318866;20;3583719;-59
2022/04/23 07:08:32;;;;;;;;;32.67;31.00;;;;;10.32;100.00;98599.19;6282144;20;3597239;-59
2022/04/23 07:11:01;;;;;;;;;44.33;33.67;;;;;10.35;100.00;98601.69;6317709;20;3602309;-59
2022/04/23 07:13:30;;;;;;;;;32.67;31.67;;;;;10.40;100.00;98614.72;6282659;20;2854528;-59
2022/04/23 07:15:59;;;;;;;;;44.67;37.00;;;;;10.43;100.00;98609.97;6316918;20;3615999;-59
2022/04/23 07:18:29;;;;;;;;;40.33;35.67;;;;;10.52;100.00;98613.75;6282791;20;2850506;-59
2022/04/23 07:20:59;;;;;;;;;49.67;38.00;;;;;10.59;100.00;98617.69;6315737;20;3596252;-59
2022/04/23 07:26:16;;;;;;;;;38.00;36.00;;;;;10.74;100.00;98618.28;6315410;20;2843093;-59
2022/04/23 07:28:45;;;;;;;;;42.00;36.00;;;;;10.66;100.00;98632.31;6286948;20;3614808;-59
2022/04/23 07:31:14;;;;;;;;;38.67;33.67;;;;;10.89;100.00;98632.31;6284016;20;2842989;-59
2022/04/23 07:39:18;;;;;;;;;40.33;34.33;;;;;10.76;100.00;98632.44;6279568;20;2853572;-59
2022/04/23 07:41:47;;;;;;;;;36.67;34.67;;;;;10.61;100.00;98629.16;6319026;20;3590966;-60
2022/04/23 07:44:16;;;;;;;;;35.00;31.33;;;;;10.83;100.00;98632.81;6283709;20;2847153;-59
2022/04/23 07:46:45;;;;;;;;;29.67;26.33;;;;;10.91;100.00;98633.91;6318062;20;3575346;-59
2022/04/23 07:49:14;;;;;;;;;36.00;34.00;;;;;10.99;100.00;98633.28;6317373;20;3591906;-59
2022/04/23 07:51:46;;;;;;;;;38.67;34.67;;;;;11.03;100.00;98644.63;6281942;20;2855535;-59
2022/04/23 07:54:16;;;;;;;;;35.00;29.33;;;;;11.17;100.00;98636.34;6313598;20;3604951;-59
2022/04/23 07:56:45;;;;;;;;;32.00;31.00;;;;;11.57;100.00;98647.38;6280627;20;3602401;-59
2022/04/23 07:59:14;;;;;;;;;25.50;23.50;;;;;11.60;99.69;98644.41;6303539;20;2826290;-59
2022/04/23 08:01:44;;;;;;;;;39.33;33.67;;;;;11.53;99.63;98648.63;6284513;20;3601248;-59
2022/04/23 08:04:13;;;;;;;;;37.67;32.67;;;;;11.53;99.23;98645.03;6316281;20;3610812;-59
2022/04/23 08:06:41;;;;;;;;;34.67;32.67;;;;;11.45;98.95;98651.03;6286951;20;3592931;-59
2022/04/23 08:09:10;;;;;;;;;31.67;31.67;;;;;11.50;99.16;98653.38;6284818;20;3588799;-59
2022/04/23 08:11:40;;;;;;;;;57.00;44.33;;;;;11.51;98.46;98660.47;6283785;20;3638792;-59
2022/04/23 08:14:11;;;;;;;;;45.67;38.00;;;;;11.83;97.87;98665.88;6317253;20;3609624;-59
2022/04/23 08:16:41;;;;;;;;;38.33;31.33;;;;;11.43;99.13;98663.78;6284403;20;3583592;-52
2022/04/23 08:19:11;;;;;;;;;32.00;27.67;;;;;11.51;98.25;98666.69;6271452;20;2860761;-55
2022/04/23 08:21:40;;;;;;;;;43.00;34.33;;;;;11.40;100.00;98670.25;6313606;20;3622130;-55
2022/04/23 08:24:09;;;;;;;;;40.00;36.00;;;;;11.48;100.00;98666.94;6281438;20;2810696;-54
2022/04/23 08:26:37;;;;;;;;;42.00;36.00;;;;;11.83;99.35;98671.25;6281882;20;2871099;-54
2022/04/23 08:31:54;;;;;;;;;41.67;37.00;;;;;11.74;98.31;98680.06;6315460;20;3606485;-53
2022/04/23 08:34:23;;;;;;;;;34.67;33.00;;;;;11.72;97.96;98690.97;6284414;20;3586724;-52
2022/04/23 08:36:52;;;;;;;;;45.67;36.67;;;;;11.43;98.72;98686.13;6278886;20;2848312;-56
2022/04/23 08:39:21;;;;;;;;;38.33;34.33;;;;;11.22;100.00;98693.25;6312897;20;3578500;-55
2022/04/23 08:41:51;;;;;;;;;42.00;38.00;;;;;11.75;99.40;98695.25;6281259;20;2852399;-54
2022/04/23 08:44:21;;;;;;;;;42.67;35.67;;;;;11.69;98.19;98696.59;6312072;20;3578426;-53
2022/04/23 08:46:54;;;;;;;;;49.50;39.00;;;;;11.61;98.81;98699.03;6280372;20;2851536;-50
2022/04/23 08:49:34;;;;;;;;;46.00;40.00;;;;;11.42;99.41;98711.28;6283474;20;3595160;-51
2022/04/23 08:52:18;;;;;;;;;49.00;37.00;;;;;11.64;98.92;98715.78;6282663;20;3622118;-51
2022/04/23 08:54:48;;;;;;;;;47.00;37.00;;;;;11.42;100.00;98713.13;6312261;20;3611811;-51
2022/04/23 08:57:16;;;;;;;;;41.00;38.00;;;;;11.39;100.00;98713.38;6314934;20;3615850;-58
2022/04/23 08:59:51;;;;;;;;;40.33;35.00;;;;;11.69;99.62;98714.53;6280300;20;2853593;-53
2022/04/23 09:02:20;;;;;;;;;38.00;35.00;;;;;11.36;100.00;98705.56;6312715;20;3581767;-51
2022/04/23 09:04:50;;;;;;;;;36.67;34.33;;;;;11.38;100.00;98709.00;6277806;20;2848241;-51
2022/04/23 09:07:25;;;;;;;;;44.00;34.33;;;;;11.71;98.04;98716.13;6316523;20;3615892;-52
2022/04/23 09:09:57;;;;;;;;;46.00;37.67;;;;;11.64;98.34;98710.41;6279967;20;3610757;-49
2022/04/23 09:12:28;;;;;;;;;38.33;34.33;;;;;11.39;99.83;98708.00;6280799;20;3609594;-49
2022/04/23 09:23:43;;;;;;;;;37.67;34.67;;;;;11.27;100.00;98725.97;6278950;20;2837942;-48
2022/04/23 09:26:21;;;;;;;;;35.33;34.33;;;;;11.11;100.00;98725.47;6315475;20;3580521;-48
2022/04/23 09:28:50;;;;;;;;;46.67;37.33;;;;;11.48;100.00;98726.09;6280392;20;2874346;-53
2022/04/23 09:31:20;;;;;;;;;50.67;37.67;;;;;11.63;100.00;98734.72;6310071;20;3613805;-50
2022/04/23 09:33:51;;;;;;;;;46.33;38.67;;;;;11.86;100.00;98735.56;6311404;20;3599283;-51
2022/04/23 09:36:21;;;;;;;;;44.33;36.00;;;;;11.95;100.00;98739.34;6276353;20;2877609;-51
2022/04/23 09:39:03;;;;;;;;;44.33;38.33;;;;;11.99;98.85;98741.66;6315821;20;3589847;-50
2022/04/23 09:41:34;;;;;;;;;41.00;34.00;;;;;11.39;100.00;98737.56;6277005;20;3598611;-50
2022/04/23 09:44:09;;;;;;;;;40.00;35.67;;;;;11.87;100.00;98750.72;6314583;20;3620075;-49
2022/04/23 09:46:46;;;;;;;;;40.00;33.67;;;;;11.94;100.00;98749.25;6280854;20;3590878;-48
2022/04/23 09:49:34;;;;;;;;;39.67;36.00;;;;;11.67;99.55;98751.47;6275923;20;2856795;-50
2022/04/23 09:52:07;;;;;;;;;39.00;34.00;;;;;11.97;98.06;98759.75;6313993;20;3586686;-47
2022/04/23 09:54:38;;;;;;;;;48.50;40.50;;;;;12.27;95.97;98763.59;6276257;20;2843989;-48
2022/04/23 09:57:07;;;;;;;;;41.00;36.00;;;;;12.40;95.94;98766.97;6281144;20;3606482;-51
2022/04/23 09:59:37;;;;;;;;;42.33;37.33;;;;;12.38;94.97;98768.91;6278019;20;2848301;-48
2022/04/23 10:02:14;;;;;;;;;39.67;35.67;;;;;12.22;95.62;98772.03;6312158;20;3598325;-49
2022/04/23 10:04:45;;;;;;;;;50.67;39.00;;;;;12.36;98.53;98778.09;6278692;20;2856545;-50
2022/04/23 10:07:18;;;;;;;;;37.33;35.33;;;;;11.97;97.86;98780.41;6307840;20;2854849;-48
2022/04/23 10:09:48;;;;;;;;;39.00;34.33;;;;;12.33;97.87;98781.06;6313407;20;3578399;-48
2022/04/23 10:12:20;;;;;;;;;40.67;35.33;;;;;12.23;95.77;98775.56;6278264;20;3606479;-48
2022/04/23 10:15:00;;;;;;;;;43.00;35.00;;;;;12.14;97.39;98776.31;6278786;20;3622099;-49
2022/04/23 10:17:30;;;;;;;;;36.33;34.00;;;;;12.48;93.91;98777.94;6313571;20;3610684;-50
2022/04/23 10:20:00;;;;;;;;;37.33;32.67;;;;;11.97;93.67;98775.88;6279585;20;3592945;-52
2022/04/23 10:22:57;;;;;;;;;39.00;33.33;;;;;12.24;93.48;98767.38;6277826;20;3593324;-51
2022/04/23 10:25:50;;;;;;;;;38.00;33.00;;;;;11.99;95.29;98773.94;6309841;20;3580454;-47
2022/04/23 10:28:20;;;;;;;;;42.67;37.67;;;;;12.05;96.80;98778.78;6282698;20;3613775;-51
2022/04/23 10:31:16;;;;;;;;;36.33;32.67;;;;;12.08;96.38;98773.19;6281261;20;2850300;-52
2022/04/23 10:33:51;;;;;;;;;45.00;37.00;;;;;12.43;95.66;98776.63;6313579;20;2863773;-51
2022/04/23 10:36:23;;;;;;;;;37.33;34.67;;;;;12.20;97.14;98765.91;6313800;20;2852363;-52
2022/04/23 10:39:24;;;;;;;;;45.33;36.33;;;;;12.28;96.74;98774.22;6315455;20;2863910;-47
2022/04/23 10:41:56;;;;;;;;;41.00;36.33;;;;;12.22;94.30;98777.41;6316782;20;3588868;-49
2022/04/23 10:44:31;;;;;;;;;44.00;38.33;;;;;12.63;93.51;98777.63;6285855;20;3593476;-49
2022/04/23 10:47:00;;;;;;;;;42.33;37.33;;;;;11.96;96.21;98779.56;6314717;20;3602476;-50
2022/04/23 10:49:29;;;;;;;;;37.50;33.50;;;;;12.50;94.00;98773.25;6284053;20;3477377;-49
2022/04/23 10:51:59;;;;;;;;;39.50;35.00;;;;;12.27;94.58;98787.81;6314750;20;2855448;-48
2022/04/23 10:54:40;;;;;;;;;30.67;30.67;;;;;12.72;93.75;98788.47;6284704;20;3598174;-46
2022/04/23 10:57:14;;;;;;;;;39.00;33.67;;;;;12.36;93.10;98791.56;6288451;20;3614858;-48
2022/04/23 10:59:48;;;;;;;;;38.67;32.67;;;;;12.56;92.75;98797.97;6288421;20;3587834;-49
2022/04/23 11:02:24;;;;;;;;;34.33;29.67;;;;;12.67;92.89;98789.84;6281109;20;2860740;-49
2022/04/23 11:13:58;;;;;;;;;36.00;31.00;;;;;12.56;91.74;98788.06;6287687;20;3616897;-51
2022/04/23 11:16:29;;;;;;;;;35.33;31.00;;;;;13.00;91.76;98788.78;6284178;20;3599233;-52
2022/04/23 11:19:01;;;;;;;;;38.00;30.67;;;;;13.08;89.51;98798.91;6283279;20;3603558;-54
2022/04/23 11:21:34;;;;;;;;;34.00;30.67;;;;;13.80;87.72;98796.19;6286742;20;3600295;-51
2022/04/23 11:24:04;;;;;;;;;39.00;33.67;;;;;13.38;89.98;98796.28;6283347;20;3594116;-48
2022/04/23 11:26:46;;;;;;;;;36.00;32.33;;;;;13.69;90.08;98804.38;6286322;20;3582568;-50
2022/04/23 11:29:17;;;;;;;;;31.67;28.00;;;;;13.71;88.76;98799.69;6282042;20;3604386;-51
2022/04/23 11:31:56;;;;;;;;;30.00;28.33;;;;;13.27;86.93;98804.47;6312080;20;2844167;-50
2022/04/23 11:34:28;;;;;;;;;26.67;24.67;;;;;13.65;85.72;98802.94;6314872;20;3587793;-49
2022/04/23 11:36:58;;;;;;;;;28.67;23.33;;;;;13.68;86.63;98802.66;6284058;20;3584777;-52
2022/04/23 11:39:30;;;;;;;;;32.33;26.00;;;;;13.88;86.10;98803.59;6281666;20;3595067;-48
2022/04/23 11:42:00;;;;;;;;;28.00;26.33;;;;;13.69;85.81;98801.69;6284564;20;3601241;-51
2022/04/23 11:44:49;;;;;;;;;29.00;28.00;;;;;14.21;83.69;98796.97;6312348;20;2848232;-48
2022/04/23 11:47:30;;;;;;;;;27.33;27.33;;;;;14.34;84.13;98794.03;6314218;20;3600403;-47